Fort Gibson, Oklahoma
Current Conditions -  °F | °C
As of 3:53 PM on Monday 20 Oct 2014 (Local Time) from KMKO Reporting Station
Clear Clear  
Wind Chill: 77°   Ceiling: Unl
Heat Index: 79°   Visibility: 10mi
Dew Point: 60°   Wind: 6mph
Humidity: 56%   Direction: 50°NE
Pressure: 30.02"   Gusts: NA
Location:  35.8°N, 95.25°W
Report Text: KMKO 202053Z AUTO 05005KT 10SM CLR 25/16 A3002 RMK AO2 SLP161 T02500156 56018
Loading
Personal Weather Stations






























Interactive Weather Map
Tropical Storm Tracking
New forecast layout! Learn more

10-Day Weather Forecast

Advertisements
Track Severe Weather on mobile